sensor_id;sensor_type;location;lat;lon;timestamp;P1;durP1;ratioP1;P2;durP2;ratioP2
5414;SDS011;2730;51.512;7.504;2023-08-06T00:00:28;4.40;;;4.00;;
5414;SDS011;2730;51.512;7.504;2023-08-06T00:02:55;8.53;;;5.60;;
5414;SDS011;2730;51.512;7.504;2023-08-06T00:05:21;15.67;;;4.90;;
5414;SDS011;2730;51.512;7.504;2023-08-06T00:07:50;7.90;;;5.07;;
5414;SDS011;2730;51.512;7.504;2023-08-06T00:10:17;6.07;;;5.00;;
5414;SDS011;2730;51.512;7.504;2023-08-06T00:12:43;7.77;;;5.03;;
5414;SDS011;2730;51.512;7.504;2023-08-06T00:15:11;7.63;;;3.60;;
5414;SDS011;2730;51.512;7.504;2023-08-06T00:17:37;7.17;;;4.33;;
5414;SDS011;2730;51.512;7.504;2023-08-06T00:20:05;5.03;;;4.27;;
5414;SDS011;2730;51.512;7.504;2023-08-06T00:22:33;8.13;;;5.03;;
5414;SDS011;2730;51.512;7.504;2023-08-06T00:25:01;4.70;;;4.30;;
5414;SDS011;2730;51.512;7.504;2023-08-06T00:27:28;5.07;;;3.83;;
5414;SDS011;2730;51.512;7.504;2023-08-06T00:29:55;9.00;;;4.43;;
5414;SDS011;2730;51.512;7.504;2023-08-06T00:32:21;8.20;;;4.90;;
5414;SDS011;2730;51.512;7.504;2023-08-06T00:34:48;4.97;;;4.00;;
5414;SDS011;2730;51.512;7.504;2023-08-06T00:37:15;7.47;;;3.90;;
5414;SDS011;2730;51.512;7.504;2023-08-06T00:39:42;6.03;;;4.43;;
5414;SDS011;2730;51.512;7.504;2023-08-06T00:42:11;4.30;;;3.90;;
5414;SDS011;2730;51.512;7.504;2023-08-06T00:44:38;9.03;;;4.67;;
5414;SDS011;2730;51.512;7.504;2023-08-06T00:47:05;5.33;;;3.70;;
5414;SDS011;2730;51.512;7.504;2023-08-06T00:49:33;3.60;;;3.30;;
5414;SDS011;2730;51.512;7.504;2023-08-06T00:52:01;9.47;;;4.33;;
5414;SDS011;2730;51.512;7.504;2023-08-06T00:54:30;6.47;;;4.20;;
5414;SDS011;2730;51.512;7.504;2023-08-06T00:56:57;5.17;;;3.60;;
5414;SDS011;2730;51.512;7.504;2023-08-06T00:59:27;3.93;;;3.33;;
5414;SDS011;2730;51.512;7.504;2023-08-06T01:01:54;3.67;;;3.37;;
5414;SDS011;2730;51.512;7.504;2023-08-06T01:04:21;5.00;;;4.10;;
5414;SDS011;2730;51.512;7.504;2023-08-06T01:06:51;5.13;;;3.63;;
5414;SDS011;2730;51.512;7.504;2023-08-06T01:09:30;6.13;;;3.90;;
5414;SDS011;2730;51.512;7.504;2023-08-06T01:12:04;7.73;;;4.00;;
5414;SDS011;2730;51.512;7.504;2023-08-06T01:14:37;4.23;;;3.30;;
5414;SDS011;2730;51.512;7.504;2023-08-06T01:17:12;6.17;;;4.13;;
5414;SDS011;2730;51.512;7.504;2023-08-06T01:19:40;4.63;;;3.93;;
5414;SDS011;2730;51.512;7.504;2023-08-06T01:22:08;9.00;;;4.13;;
5414;SDS011;2730;51.512;7.504;2023-08-06T01:24:35;7.17;;;2.87;;
5414;SDS011;2730;51.512;7.504;2023-08-06T01:27:03;6.00;;;2.93;;
5414;SDS011;2730;51.512;7.504;2023-08-06T01:29:35;4.37;;;3.17;;
5414;SDS011;2730;51.512;7.504;2023-08-06T01:32:05;5.47;;;3.10;;
5414;SDS011;2730;51.512;7.504;2023-08-06T01:34:36;3.67;;;3.37;;
5414;SDS011;2730;51.512;7.504;2023-08-06T01:37:06;3.80;;;3.43;;
5414;SDS011;2730;51.512;7.504;2023-08-06T01:39:34;4.30;;;3.90;;
5414;SDS011;2730;51.512;7.504;2023-08-06T01:42:01;5.40;;;3.57;;
5414;SDS011;2730;51.512;7.504;2023-08-06T01:44:28;7.80;;;3.30;;
5414;SDS011;2730;51.512;7.504;2023-08-06T01:46:55;4.87;;;3.60;;
5414;SDS011;2730;51.512;7.504;2023-08-06T01:49:22;3.80;;;3.10;;
5414;SDS011;2730;51.512;7.504;2023-08-06T01:51:49;3.83;;;3.43;;
5414;SDS011;2730;51.512;7.504;2023-08-06T01:54:15;5.23;;;3.63;;
5414;SDS011;2730;51.512;7.504;2023-08-06T01:56:43;3.77;;;3.47;;
5414;SDS011;2730;51.512;7.504;2023-08-06T01:59:10;4.23;;;3.83;;
5414;SDS011;2730;51.512;7.504;2023-08-06T02:01:37;5.93;;;3.80;;
5414;SDS011;2730;51.512;7.504;2023-08-06T02:04:04;5.17;;;4.13;;
5414;SDS011;2730;51.512;7.504;2023-08-06T02:06:30;4.37;;;3.73;;
5414;SDS011;2730;51.512;7.504;2023-08-06T02:08:57;2.90;;;2.70;;
5414;SDS011;2730;51.512;7.504;2023-08-06T02:11:24;7.43;;;3.07;;
5414;SDS011;2730;51.512;7.504;2023-08-06T02:13:52;5.80;;;4.60;;
5414;SDS011;2730;51.512;7.504;2023-08-06T02:16:19;5.77;;;3.60;;
5414;SDS011;2730;51.512;7.504;2023-08-06T02:18:46;7.60;;;3.43;;
5414;SDS011;2730;51.512;7.504;2023-08-06T02:21:13;5.10;;;3.50;;
5414;SDS011;2730;51.512;7.504;2023-08-06T02:23:39;6.43;;;4.23;;
5414;SDS011;2730;51.512;7.504;2023-08-06T02:26:06;4.40;;;3.70;;
5414;SDS011;2730;51.512;7.504;2023-08-06T02:28:33;5.23;;;3.63;;
5414;SDS011;2730;51.512;7.504;2023-08-06T02:31:01;4.50;;;4.10;;
5414;SDS011;2730;51.512;7.504;2023-08-06T02:33:28;6.80;;;4.13;;
5414;SDS011;2730;51.512;7.504;2023-08-06T02:36:01;4.70;;;3.90;;
5414;SDS011;2730;51.512;7.504;2023-08-06T02:38:28;4.30;;;3.90;;
5414;SDS011;2730;51.512;7.504;2023-08-06T02:40:55;5.97;;;4.30;;
5414;SDS011;2730;51.512;7.504;2023-08-06T02:43:22;7.93;;;4.23;;
5414;SDS011;2730;51.512;7.504;2023-08-06T02:45:49;4.90;;;4.33;;
5414;SDS011;2730;51.512;7.504;2023-08-06T02:48:17;5.00;;;4.50;;
5414;SDS011;2730;51.512;7.504;2023-08-06T02:50:44;7.43;;;4.57;;
5414;SDS011;2730;51.512;7.504;2023-08-06T02:53:10;5.47;;;4.70;;
5414;SDS011;2730;51.512;7.504;2023-08-06T02:55:37;6.60;;;4.93;;
5414;SDS011;2730;51.512;7.504;2023-08-06T02:58:11;4.32;;;3.92;;
5414;SDS011;2730;51.512;7.504;2023-08-06T03:00:38;6.27;;;4.90;;
5414;SDS011;2730;51.512;7.504;2023-08-06T03:03:04;7.27;;;4.70;;
5414;SDS011;2730;51.512;7.504;2023-08-06T03:05:33;8.63;;;4.50;;
5414;SDS011;2730;51.512;7.504;2023-08-06T03:07:59;7.53;;;5.17;;
5414;SDS011;2730;51.512;7.504;2023-08-06T03:10:26;6.80;;;4.87;;
5414;SDS011;2730;51.512;7.504;2023-08-06T03:12:53;6.73;;;4.53;;
5414;SDS011;2730;51.512;7.504;2023-08-06T03:15:19;11.13;;;4.73;;
5414;SDS011;2730;51.512;7.504;2023-08-06T03:17:46;7.80;;;4.73;;
5414;SDS011;2730;51.512;7.504;2023-08-06T03:20:13;11.03;;;5.50;;
5414;SDS011;2730;51.512;7.504;2023-08-06T03:22:41;8.00;;;5.30;;
5414;SDS011;2730;51.512;7.504;2023-08-06T03:25:08;5.63;;;5.03;;
5414;SDS011;2730;51.512;7.504;2023-08-06T03:27:34;5.73;;;5.13;;
5414;SDS011;2730;51.512;7.504;2023-08-06T03:30:01;9.80;;;5.17;;
5414;SDS011;2730;51.512;7.504;2023-08-06T03:32:28;6.67;;;5.17;;
5414;SDS011;2730;51.512;7.504;2023-08-06T03:34:55;5.60;;;4.60;;
5414;SDS011;2730;51.512;7.504;2023-08-06T03:37:21;15.13;;;5.60;;
5414;SDS011;2730;51.512;7.504;2023-08-06T03:39:50;5.30;;;4.50;;
5414;SDS011;2730;51.512;7.504;2023-08-06T03:42:16;7.07;;;5.23;;
5414;SDS011;2730;51.512;7.504;2023-08-06T03:44:43;9.17;;;6.60;;
5414;SDS011;2730;51.512;7.504;2023-08-06T03:47:10;10.70;;;5.30;;
5414;SDS011;2730;51.512;7.504;2023-08-06T03:49:36;6.90;;;5.27;;
5414;SDS011;2730;51.512;7.504;2023-08-06T03:52:04;5.70;;;4.30;;
5414;SDS011;2730;51.512;7.504;2023-08-06T03:54:31;6.50;;;4.78;;
5414;SDS011;2730;51.512;7.504;2023-08-06T03:56:59;5.83;;;5.20;;
5414;SDS011;2730;51.512;7.504;2023-08-06T03:59:26;5.73;;;4.97;;
5414;SDS011;2730;51.512;7.504;2023-08-06T04:01:52;5.30;;;4.70;;
5414;SDS011;2730;51.512;7.504;2023-08-06T04:04:19;9.60;;;5.40;;
5414;SDS011;2730;51.512;7.504;2023-08-06T04:06:46;8.23;;;5.23;;
5414;SDS011;2730;51.512;7.504;2023-08-06T04:09:13;10.23;;;5.37;;
5414;SDS011;2730;51.512;7.504;2023-08-06T04:11:39;9.80;;;4.80;;
5414;SDS011;2730;51.512;7.504;2023-08-06T04:14:07;11.00;;;6.23;;
5414;SDS011;2730;51.512;7.504;2023-08-06T04:16:34;9.07;;;5.63;;
5414;SDS011;2730;51.512;7.504;2023-08-06T04:19:01;6.73;;;5.60;;
5414;SDS011;2730;51.512;7.504;2023-08-06T04:21:28;5.47;;;4.97;;
5414;SDS011;2730;51.512;7.504;2023-08-06T04:23:55;8.70;;;4.60;;
5414;SDS011;2730;51.512;7.504;2023-08-06T04:26:22;7.93;;;4.27;;
5414;SDS011;2730;51.512;7.504;2023-08-06T04:28:49;5.40;;;4.87;;
5414;SDS011;2730;51.512;7.504;2023-08-06T04:31:17;5.07;;;4.57;;
5414;SDS011;2730;51.512;7.504;2023-08-06T04:33:44;6.57;;;4.93;;
5414;SDS011;2730;51.512;7.504;2023-08-06T04:36:11;5.20;;;4.53;;
5414;SDS011;2730;51.512;7.504;2023-08-06T04:38:38;5.90;;;4.83;;
5414;SDS011;2730;51.512;7.504;2023-08-06T04:41:06;6.63;;;4.73;;
5414;SDS011;2730;51.512;7.504;2023-08-06T04:43:33;6.30;;;4.87;;
5414;SDS011;2730;51.512;7.504;2023-08-06T04:46:00;7.07;;;5.17;;
5414;SDS011;2730;51.512;7.504;2023-08-06T04:48:28;5.40;;;4.90;;
5414;SDS011;2730;51.512;7.504;2023-08-06T04:50:54;6.60;;;4.97;;
5414;SDS011;2730;51.512;7.504;2023-08-06T04:53:21;7.93;;;5.00;;
5414;SDS011;2730;51.512;7.504;2023-08-06T04:55:48;7.87;;;4.80;;
5414;SDS011;2730;51.512;7.504;2023-08-06T04:58:14;7.53;;;5.07;;
5414;SDS011;2730;51.512;7.504;2023-08-06T05:00:42;10.00;;;6.30;;
5414;SDS011;2730;51.512;7.504;2023-08-06T05:03:08;6.10;;;5.50;;
5414;SDS011;2730;51.512;7.504;2023-08-06T05:05:37;10.48;;;6.25;;
5414;SDS011;2730;51.512;7.504;2023-08-06T05:08:06;6.93;;;5.30;;
5414;SDS011;2730;51.512;7.504;2023-08-06T05:10:33;8.00;;;5.37;;
5414;SDS011;2730;51.512;7.504;2023-08-06T05:12:59;8.60;;;5.30;;
5414;SDS011;2730;51.512;7.504;2023-08-06T05:15:26;5.83;;;4.77;;
5414;SDS011;2730;51.512;7.504;2023-08-06T05:17:53;9.40;;;4.97;;
5414;SDS011;2730;51.512;7.504;2023-08-06T05:20:20;6.40;;;4.40;;
5414;SDS011;2730;51.512;7.504;2023-08-06T05:22:48;5.20;;;4.73;;
5414;SDS011;2730;51.512;7.504;2023-08-06T05:25:16;5.00;;;4.50;;
5414;SDS011;2730;51.512;7.504;2023-08-06T05:27:42;5.43;;;4.23;;
5414;SDS011;2730;51.512;7.504;2023-08-06T05:30:10;6.30;;;4.20;;
5414;SDS011;2730;51.512;7.504;2023-08-06T05:32:37;5.27;;;4.77;;
5414;SDS011;2730;51.512;7.504;2023-08-06T05:35:04;5.00;;;4.20;;
5414;SDS011;2730;51.512;7.504;2023-08-06T05:37:31;4.40;;;4.00;;
5414;SDS011;2730;51.512;7.504;2023-08-06T05:39:59;7.93;;;4.47;;
5414;SDS011;2730;51.512;7.504;2023-08-06T05:42:26;5.40;;;4.90;;
5414;SDS011;2730;51.512;7.504;2023-08-06T05:44:53;4.33;;;3.93;;
5414;SDS011;2730;51.512;7.504;2023-08-06T05:47:20;6.77;;;4.60;;
5414;SDS011;2730;51.512;7.504;2023-08-06T05:49:47;4.60;;;4.23;;
5414;SDS011;2730;51.512;7.504;2023-08-06T05:52:13;4.60;;;4.20;;
5414;SDS011;2730;51.512;7.504;2023-08-06T05:54:40;3.83;;;3.53;;
5414;SDS011;2730;51.512;7.504;2023-08-06T05:57:08;3.50;;;3.30;;
5414;SDS011;2730;51.512;7.504;2023-08-06T05:59:35;5.67;;;3.37;;
5414;SDS011;2730;51.512;7.504;2023-08-06T06:02:02;5.40;;;3.33;;
5414;SDS011;2730;51.512;7.504;2023-08-06T06:04:29;5.37;;;3.40;;
5414;SDS011;2730;51.512;7.504;2023-08-06T06:06:55;2.83;;;2.63;;
5414;SDS011;2730;51.512;7.504;2023-08-06T06:09:22;3.43;;;3.13;;
5414;SDS011;2730;51.512;7.504;2023-08-06T06:11:49;3.20;;;2.90;;
5414;SDS011;2730;51.512;7.504;2023-08-06T06:14:17;5.23;;;2.77;;
5414;SDS011;2730;51.512;7.504;2023-08-06T06:16:44;2.50;;;2.30;;
5414;SDS011;2730;51.512;7.504;2023-08-06T06:19:12;4.47;;;2.77;;
5414;SDS011;2730;51.512;7.504;2023-08-06T06:21:38;5.83;;;2.63;;
5414;SDS011;2730;51.512;7.504;2023-08-06T06:24:05;3.10;;;2.57;;
5414;SDS011;2730;51.512;7.504;2023-08-06T06:26:33;3.73;;;2.00;;
5414;SDS011;2730;51.512;7.504;2023-08-06T06:29:00;2.47;;;2.03;;
5414;SDS011;2730;51.512;7.504;2023-08-06T06:31:28;2.10;;;1.90;;
5414;SDS011;2730;51.512;7.504;2023-08-06T06:33:54;2.17;;;1.97;;
5414;SDS011;2730;51.512;7.504;2023-08-06T06:36:21;3.23;;;2.23;;
5414;SDS011;2730;51.512;7.504;2023-08-06T06:38:48;2.90;;;2.40;;
5414;SDS011;2730;51.512;7.504;2023-08-06T06:41:15;2.60;;;2.00;;
5414;SDS011;2730;51.512;7.504;2023-08-06T06:43:42;8.00;;;2.07;;
5414;SDS011;2730;51.512;7.504;2023-08-06T06:46:09;3.53;;;2.07;;
5414;SDS011;2730;51.512;7.504;2023-08-06T06:48:37;4.63;;;2.53;;
5414;SDS011;2730;51.512;7.504;2023-08-06T06:51:04;1.83;;;1.73;;
5414;SDS011;2730;51.512;7.504;2023-08-06T06:53:30;3.90;;;2.00;;
5414;SDS011;2730;51.512;7.504;2023-08-06T06:56:01;1.97;;;1.87;;
5414;SDS011;2730;51.512;7.504;2023-08-06T06:58:29;2.90;;;1.63;;
5414;SDS011;2730;51.512;7.504;2023-08-06T07:00:56;3.30;;;1.70;;
5414;SDS011;2730;51.512;7.504;2023-08-06T07:03:23;2.33;;;1.73;;
5414;SDS011;2730;51.512;7.504;2023-08-06T07:05:51;1.87;;;1.60;;
5414;SDS011;2730;51.512;7.504;2023-08-06T07:08:17;4.90;;;2.17;;
5414;SDS011;2730;51.512;7.504;2023-08-06T07:10:44;2.07;;;1.97;;
5414;SDS011;2730;51.512;7.504;2023-08-06T07:13:11;2.10;;;2.00;;
5414;SDS011;2730;51.512;7.504;2023-08-06T07:15:38;1.90;;;1.80;;
5414;SDS011;2730;51.512;7.504;2023-08-06T07:18:05;3.77;;;2.00;;
5414;SDS011;2730;51.512;7.504;2023-08-06T07:20:31;2.57;;;2.17;;
5414;SDS011;2730;51.512;7.504;2023-08-06T07:23:00;2.20;;;1.77;;
5414;SDS011;2730;51.512;7.504;2023-08-06T07:25:27;1.93;;;1.77;;
5414;SDS011;2730;51.512;7.504;2023-08-06T07:27:54;3.00;;;2.50;;
5414;SDS011;2730;51.512;7.504;2023-08-06T07:30:21;2.93;;;2.20;;
5414;SDS011;2730;51.512;7.504;2023-08-06T07:32:48;3.20;;;2.10;;
5414;SDS011;2730;51.512;7.504;2023-08-06T07:35:16;2.70;;;2.17;;
5414;SDS011;2730;51.512;7.504;2023-08-06T07:37:42;3.00;;;2.27;;
5414;SDS011;2730;51.512;7.504;2023-08-06T07:40:11;6.00;;;2.70;;
5414;SDS011;2730;51.512;7.504;2023-08-06T07:42:38;1.90;;;1.80;;
5414;SDS011;2730;51.512;7.504;2023-08-06T07:45:06;4.97;;;2.30;;
5414;SDS011;2730;51.512;7.504;2023-08-06T07:47:34;3.10;;;2.00;;
5414;SDS011;2730;51.512;7.504;2023-08-06T07:50:01;4.33;;;2.07;;
5414;SDS011;2730;51.512;7.504;2023-08-06T07:52:28;1.97;;;1.83;;
5414;SDS011;2730;51.512;7.504;2023-08-06T07:54:54;8.70;;;2.50;;
5414;SDS011;2730;51.512;7.504;2023-08-06T07:57:22;2.97;;;2.50;;
5414;SDS011;2730;51.512;7.504;2023-08-06T07:59:49;2.50;;;2.30;;
5414;SDS011;2730;51.512;7.504;2023-08-06T08:02:18;5.33;;;2.67;;
5414;SDS011;2730;51.512;7.504;2023-08-06T08:04:45;3.10;;;2.90;;
5414;SDS011;2730;51.512;7.504;2023-08-06T08:07:12;3.23;;;2.57;;
5414;SDS011;2730;51.512;7.504;2023-08-06T08:09:39;5.93;;;2.80;;
5414;SDS011;2730;51.512;7.504;2023-08-06T08:12:06;5.57;;;3.30;;
5414;SDS011;2730;51.512;7.504;2023-08-06T08:14:34;7.83;;;3.10;;
5414;SDS011;2730;51.512;7.504;2023-08-06T08:17:02;3.23;;;2.93;;
5414;SDS011;2730;51.512;7.504;2023-08-06T08:19:29;3.00;;;2.80;;
5414;SDS011;2730;51.512;7.504;2023-08-06T08:21:55;3.40;;;2.73;;
5414;SDS011;2730;51.512;7.504;2023-08-06T08:24:22;3.60;;;3.30;;
5414;SDS011;2730;51.512;7.504;2023-08-06T08:26:49;4.40;;;3.10;;
5414;SDS011;2730;51.512;7.504;2023-08-06T08:29:17;5.40;;;2.77;;
5414;SDS011;2730;51.512;7.504;2023-08-06T08:31:45;5.10;;;2.63;;
5414;SDS011;2730;51.512;7.504;2023-08-06T08:34:14;2.73;;;2.50;;
5414;SDS011;2730;51.512;7.504;2023-08-06T08:36:40;11.93;;;2.80;;
5414;SDS011;2730;51.512;7.504;2023-08-06T08:39:07;4.50;;;3.00;;
5414;SDS011;2730;51.512;7.504;2023-08-06T08:41:35;4.93;;;3.27;;
5414;SDS011;2730;51.512;7.504;2023-08-06T08:44:03;3.83;;;3.20;;
5414;SDS011;2730;51.512;7.504;2023-08-06T08:46:34;8.23;;;5.00;;
5414;SDS011;2730;51.512;7.504;2023-08-06T08:49:03;6.00;;;3.60;;
5414;SDS011;2730;51.512;7.504;2023-08-06T08:51:31;5.23;;;4.33;;
5414;SDS011;2730;51.512;7.504;2023-08-06T08:53:59;7.10;;;4.80;;
5414;SDS011;2730;51.512;7.504;2023-08-06T08:56:28;7.90;;;3.50;;
5414;SDS011;2730;51.512;7.504;2023-08-06T08:58:56;4.00;;;2.73;;
5414;SDS011;2730;51.512;7.504;2023-08-06T09:01:23;3.50;;;3.20;;
5414;SDS011;2730;51.512;7.504;2023-08-06T09:03:51;7.40;;;3.97;;
5414;SDS011;2730;51.512;7.504;2023-08-06T09:06:21;6.00;;;4.60;;
5414;SDS011;2730;51.512;7.504;2023-08-06T09:08:51;4.63;;;3.13;;
5414;SDS011;2730;51.512;7.504;2023-08-06T09:11:26;2.67;;;1.97;;
5414;SDS011;2730;51.512;7.504;2023-08-06T09:13:53;2.20;;;2.10;;
5414;SDS011;2730;51.512;7.504;2023-08-06T09:16:21;4.83;;;2.60;;
5414;SDS011;2730;51.512;7.504;2023-08-06T09:18:48;3.80;;;2.70;;
5414;SDS011;2730;51.512;7.504;2023-08-06T09:21:15;4.57;;;2.50;;
5414;SDS011;2730;51.512;7.504;2023-08-06T09:23:43;15.10;;;3.17;;
5414;SDS011;2730;51.512;7.504;2023-08-06T09:26:11;3.67;;;2.20;;
5414;SDS011;2730;51.512;7.504;2023-08-06T09:28:39;4.07;;;2.90;;
5414;SDS011;2730;51.512;7.504;2023-08-06T09:31:08;3.97;;;2.77;;
5414;SDS011;2730;51.512;7.504;2023-08-06T09:33:35;7.07;;;2.50;;
5414;SDS011;2730;51.512;7.504;2023-08-06T09:36:09;1.93;;;1.83;;
5414;SDS011;2730;51.512;7.504;2023-08-06T09:38:37;5.23;;;2.07;;
5414;SDS011;2730;51.512;7.504;2023-08-06T09:41:07;4.30;;;2.00;;
5414;SDS011;2730;51.512;7.504;2023-08-06T09:43:40;5.17;;;2.93;;
5414;SDS011;2730;51.512;7.504;2023-08-06T09:46:11;4.30;;;3.60;;
5414;SDS011;2730;51.512;7.504;2023-08-06T09:48:44;3.50;;;3.20;;
5414;SDS011;2730;51.512;7.504;2023-08-06T09:51:11;3.83;;;3.60;;
5414;SDS011;2730;51.512;7.504;2023-08-06T09:53:40;8.87;;;5.80;;
5414;SDS011;2730;51.512;7.504;2023-08-06T09:56:08;6.40;;;5.77;;
5414;SDS011;2730;51.512;7.504;2023-08-06T09:58:36;9.83;;;7.60;;
5414;SDS011;2730;51.512;7.504;2023-08-06T10:01:04;10.23;;;5.73;;
5414;SDS011;2730;51.512;7.504;2023-08-06T10:03:31;7.40;;;5.73;;
5414;SDS011;2730;51.512;7.504;2023-08-06T10:06:00;13.83;;;5.63;;
5414;SDS011;2730;51.512;7.504;2023-08-06T10:08:31;7.13;;;5.77;;
5414;SDS011;2730;51.512;7.504;2023-08-06T10:10:57;9.53;;;5.60;;
5414;SDS011;2730;51.512;7.504;2023-08-06T10:13:26;6.73;;;6.03;;
5414;SDS011;2730;51.512;7.504;2023-08-06T10:15:53;6.00;;;5.00;;
5414;SDS011;2730;51.512;7.504;2023-08-06T10:18:20;7.17;;;4.70;;
5414;SDS011;2730;51.512;7.504;2023-08-06T10:20:47;4.63;;;4.20;;
5414;SDS011;2730;51.512;7.504;2023-08-06T10:23:14;6.60;;;4.53;;
5414;SDS011;2730;51.512;7.504;2023-08-06T10:25:42;7.17;;;4.80;;
5414;SDS011;2730;51.512;7.504;2023-08-06T10:28:09;5.47;;;5.00;;
5414;SDS011;2730;51.512;7.504;2023-08-06T10:30:43;8.87;;;5.47;;
5414;SDS011;2730;51.512;7.504;2023-08-06T10:33:11;5.53;;;4.20;;
5414;SDS011;2730;51.512;7.504;2023-08-06T10:35:40;6.57;;;5.10;;
5414;SDS011;2730;51.512;7.504;2023-08-06T10:38:09;8.40;;;5.50;;
5414;SDS011;2730;51.512;7.504;2023-08-06T10:40:36;8.30;;;4.20;;
5414;SDS011;2730;51.512;7.504;2023-08-06T10:43:05;5.27;;;4.07;;
5414;SDS011;2730;51.512;7.504;2023-08-06T10:45:34;5.40;;;3.67;;
5414;SDS011;2730;51.512;7.504;2023-08-06T10:48:03;4.70;;;3.43;;
5414;SDS011;2730;51.512;7.504;2023-08-06T10:50:30;3.43;;;2.57;;
5414;SDS011;2730;51.512;7.504;2023-08-06T10:53:02;3.30;;;2.57;;
5414;SDS011;2730;51.512;7.504;2023-08-06T10:55:31;3.00;;;2.80;;
5414;SDS011;2730;51.512;7.504;2023-08-06T10:57:58;3.23;;;2.57;;
5414;SDS011;2730;51.512;7.504;2023-08-06T11:00:25;2.80;;;2.60;;
5414;SDS011;2730;51.512;7.504;2023-08-06T11:02:52;5.23;;;2.87;;
5414;SDS011;2730;51.512;7.504;2023-08-06T11:05:21;4.03;;;3.67;;
5414;SDS011;2730;51.512;7.504;2023-08-06T11:07:48;3.63;;;2.73;;
5414;SDS011;2730;51.512;7.504;2023-08-06T11:10:16;3.63;;;3.40;;
5414;SDS011;2730;51.512;7.504;2023-08-06T11:12:43;3.60;;;3.30;;
5414;SDS011;2730;51.512;7.504;2023-08-06T11:15:10;3.30;;;3.10;;
5414;SDS011;2730;51.512;7.504;2023-08-06T11:17:37;3.20;;;3.00;;
5414;SDS011;2730;51.512;7.504;2023-08-06T11:20:07;4.30;;;2.80;;
5414;SDS011;2730;51.512;7.504;2023-08-06T11:22:36;5.83;;;3.40;;
5414;SDS011;2730;51.512;7.504;2023-08-06T11:25:04;3.10;;;2.90;;
5414;SDS011;2730;51.512;7.504;2023-08-06T11:27:32;3.63;;;2.80;;
5414;SDS011;2730;51.512;7.504;2023-08-06T11:29:59;3.17;;;2.90;;
5414;SDS011;2730;51.512;7.504;2023-08-06T11:32:26;3.23;;;2.90;;
5414;SDS011;2730;51.512;7.504;2023-08-06T11:34:53;3.37;;;2.97;;
5414;SDS011;2730;51.512;7.504;2023-08-06T11:37:21;2.87;;;2.70;;
5414;SDS011;2730;51.512;7.504;2023-08-06T11:39:50;3.10;;;2.40;;
5414;SDS011;2730;51.512;7.504;2023-08-06T11:42:17;3.10;;;2.80;;
5414;SDS011;2730;51.512;7.504;2023-08-06T11:44:44;2.20;;;2.10;;
5414;SDS011;2730;51.512;7.504;2023-08-06T11:47:14;3.00;;;2.50;;
5414;SDS011;2730;51.512;7.504;2023-08-06T11:49:43;2.30;;;2.20;;
5414;SDS011;2730;51.512;7.504;2023-08-06T11:52:13;2.43;;;2.23;;
5414;SDS011;2730;51.512;7.504;2023-08-06T11:54:43;3.93;;;2.50;;
5414;SDS011;2730;51.512;7.504;2023-08-06T11:57:11;3.90;;;2.50;;
5414;SDS011;2730;51.512;7.504;2023-08-06T11:59:38;2.23;;;2.13;;
5414;SDS011;2730;51.512;7.504;2023-08-06T12:02:07;4.20;;;2.53;;
5414;SDS011;2730;51.512;7.504;2023-08-06T12:07:30;2.70;;;2.50;;
5414;SDS011;2730;51.512;7.504;2023-08-06T12:09:58;2.63;;;2.43;;
5414;SDS011;2730;51.512;7.504;2023-08-06T12:12:26;2.00;;;1.90;;
5414;SDS011;2730;51.512;7.504;2023-08-06T12:14:53;8.90;;;2.33;;
5414;SDS011;2730;51.512;7.504;2023-08-06T12:17:20;2.80;;;2.60;;
5414;SDS011;2730;51.512;7.504;2023-08-06T12:19:47;2.77;;;2.57;;
5414;SDS011;2730;51.512;7.504;2023-08-06T12:22:14;3.00;;;2.40;;
5414;SDS011;2730;51.512;7.504;2023-08-06T12:24:41;3.10;;;2.73;;
5414;SDS011;2730;51.512;7.504;2023-08-06T12:27:08;4.20;;;3.10;;
5414;SDS011;2730;51.512;7.504;2023-08-06T12:29:36;7.07;;;2.90;;
5414;SDS011;2730;51.512;7.504;2023-08-06T12:32:06;2.83;;;2.63;;
5414;SDS011;2730;51.512;7.504;2023-08-06T12:34:33;3.70;;;3.40;;
5414;SDS011;2730;51.512;7.504;2023-08-06T12:37:00;5.13;;;4.30;;
5414;SDS011;2730;51.512;7.504;2023-08-06T12:39:26;4.03;;;3.73;;
5414;SDS011;2730;51.512;7.504;2023-08-06T12:41:54;4.20;;;3.90;;
5414;SDS011;2730;51.512;7.504;2023-08-06T12:44:22;5.33;;;4.83;;
5414;SDS011;2730;51.512;7.504;2023-08-06T12:46:50;6.07;;;5.07;;
5414;SDS011;2730;51.512;7.504;2023-08-06T12:49:17;5.50;;;5.03;;
5414;SDS011;2730;51.512;7.504;2023-08-06T12:51:46;6.83;;;6.23;;
5414;SDS011;2730;51.512;7.504;2023-08-06T12:54:12;6.70;;;6.10;;
5414;SDS011;2730;51.512;7.504;2023-08-06T12:56:39;4.67;;;4.27;;
5414;SDS011;2730;51.512;7.504;2023-08-06T12:59:06;5.17;;;4.30;;
5414;SDS011;2730;51.512;7.504;2023-08-06T13:01:33;6.47;;;4.37;;
5414;SDS011;2730;51.512;7.504;2023-08-06T13:04:01;5.63;;;4.20;;
5414;SDS011;2730;51.512;7.504;2023-08-06T13:06:28;4.60;;;4.00;;
5414;SDS011;2730;51.512;7.504;2023-08-06T13:08:56;4.50;;;3.40;;
5414;SDS011;2730;51.512;7.504;2023-08-06T13:11:23;2.90;;;2.70;;
5414;SDS011;2730;51.512;7.504;2023-08-06T13:13:50;2.40;;;2.30;;
5414;SDS011;2730;51.512;7.504;2023-08-06T13:16:16;2.77;;;2.57;;
5414;SDS011;2730;51.512;7.504;2023-08-06T13:18:43;6.40;;;2.73;;
5414;SDS011;2730;51.512;7.504;2023-08-06T13:21:11;1.97;;;1.70;;
5414;SDS011;2730;51.512;7.504;2023-08-06T13:23:38;2.03;;;1.93;;
5414;SDS011;2730;51.512;7.504;2023-08-06T13:26:05;1.40;;;1.30;;
5414;SDS011;2730;51.512;7.504;2023-08-06T13:28:32;1.30;;;1.20;;
5414;SDS011;2730;51.512;7.504;2023-08-06T13:30:59;1.40;;;0.93;;
5414;SDS011;2730;51.512;7.504;2023-08-06T13:33:26;1.00;;;1.00;;
5414;SDS011;2730;51.512;7.504;2023-08-06T13:35:52;0.80;;;0.80;;
5414;SDS011;2730;51.512;7.504;2023-08-06T13:38:21;0.70;;;0.70;;
5414;SDS011;2730;51.512;7.504;2023-08-06T13:40:47;1.07;;;1.00;;
5414;SDS011;2730;51.512;7.504;2023-08-06T13:43:14;0.80;;;0.80;;
5414;SDS011;2730;51.512;7.504;2023-08-06T13:45:44;1.40;;;1.10;;
5414;SDS011;2730;51.512;7.504;2023-08-06T13:48:10;0.77;;;0.77;;
5414;SDS011;2730;51.512;7.504;2023-08-06T13:50:37;1.10;;;1.00;;
5414;SDS011;2730;51.512;7.504;2023-08-06T13:53:04;1.40;;;1.20;;
5414;SDS011;2730;51.512;7.504;2023-08-06T13:55:32;2.03;;;1.00;;
5414;SDS011;2730;51.512;7.504;2023-08-06T13:57:59;0.80;;;0.80;;
5414;SDS011;2730;51.512;7.504;2023-08-06T14:00:26;0.80;;;0.80;;
5414;SDS011;2730;51.512;7.504;2023-08-06T14:02:53;0.80;;;0.80;;
5414;SDS011;2730;51.512;7.504;2023-08-06T14:05:19;0.80;;;0.80;;
5414;SDS011;2730;51.512;7.504;2023-08-06T14:07:46;2.10;;;1.00;;
5414;SDS011;2730;51.512;7.504;2023-08-06T14:10:13;1.00;;;1.00;;
5414;SDS011;2730;51.512;7.504;2023-08-06T14:12:41;1.57;;;1.07;;
5414;SDS011;2730;51.512;7.504;2023-08-06T14:15:08;1.63;;;0.90;;
5414;SDS011;2730;51.512;7.504;2023-08-06T14:17:35;1.37;;;1.27;;
5414;SDS011;2730;51.512;7.504;2023-08-06T14:20:02;1.20;;;1.10;;
5414;SDS011;2730;51.512;7.504;2023-08-06T14:22:32;1.40;;;1.30;;
5414;SDS011;2730;51.512;7.504;2023-08-06T14:24:59;1.30;;;1.20;;
5414;SDS011;2730;51.512;7.504;2023-08-06T14:27:25;1.43;;;1.30;;
5414;SDS011;2730;51.512;7.504;2023-08-06T14:29:54;1.83;;;1.73;;
5414;SDS011;2730;51.512;7.504;2023-08-06T14:32:20;1.40;;;1.20;;
5414;SDS011;2730;51.512;7.504;2023-08-06T14:34:47;0.90;;;0.90;;
5414;SDS011;2730;51.512;7.504;2023-08-06T14:37:14;1.13;;;1.10;;
5414;SDS011;2730;51.512;7.504;2023-08-06T14:39:41;1.33;;;1.10;;
5414;SDS011;2730;51.512;7.504;2023-08-06T14:42:07;1.40;;;1.30;;
5414;SDS011;2730;51.512;7.504;2023-08-06T14:44:34;1.00;;;1.00;;
5414;SDS011;2730;51.512;7.504;2023-08-06T14:47:02;1.33;;;1.10;;
5414;SDS011;2730;51.512;7.504;2023-08-06T14:49:29;1.30;;;1.20;;
5414;SDS011;2730;51.512;7.504;2023-08-06T14:51:56;1.23;;;1.13;;
5414;SDS011;2730;51.512;7.504;2023-08-06T14:54:25;1.30;;;1.10;;
5414;SDS011;2730;51.512;7.504;2023-08-06T14:56:52;1.40;;;1.30;;
5414;SDS011;2730;51.512;7.504;2023-08-06T14:59:18;1.53;;;1.43;;
5414;SDS011;2730;51.512;7.504;2023-08-06T15:01:45;2.47;;;1.50;;
5414;SDS011;2730;51.512;7.504;2023-08-06T15:04:13;1.63;;;1.53;;
5414;SDS011;2730;51.512;7.504;2023-08-06T15:06:40;1.40;;;1.30;;
5414;SDS011;2730;51.512;7.504;2023-08-06T15:09:07;1.60;;;1.50;;
5414;SDS011;2730;51.512;7.504;2023-08-06T15:11:33;1.67;;;1.57;;
5414;SDS011;2730;51.512;7.504;2023-08-06T15:14:00;1.57;;;1.47;;
5414;SDS011;2730;51.512;7.504;2023-08-06T15:16:30;1.80;;;1.70;;
5414;SDS011;2730;51.512;7.504;2023-08-06T15:18:59;4.03;;;2.00;;